createdAt,value
2018-02-10T00:00:45.656Z,32.10
2018-02-10T00:03:13.181Z,29.90
2018-02-10T00:05:40.646Z,34.53
2018-02-10T00:08:08.146Z,30.33
2018-02-10T00:10:36.391Z,33.60
2018-02-10T00:13:03.848Z,32.23
2018-02-10T00:15:31.350Z,35.60
2018-02-10T00:17:59.606Z,29.03
2018-02-10T00:20:27.090Z,37.43
2018-02-10T00:22:55.351Z,33.13
2018-02-10T00:25:23.624Z,34.13
2018-02-10T00:27:51.087Z,36.77
2018-02-10T00:30:19.374Z,35.70
2018-02-10T00:32:47.609Z,32.77
2018-02-10T00:35:15.075Z,34.77
2018-02-10T00:37:42.562Z,30.50
2018-02-10T00:40:10.005Z,37.03
2018-02-10T00:42:37.464Z,34.70
2018-02-10T00:45:04.920Z,38.17
2018-02-10T00:47:32.388Z,36.93
2018-02-10T00:50:00.778Z,29.80
2018-02-10T00:52:29.107Z,38.87
2018-02-10T00:54:56.604Z,34.60
2018-02-10T00:57:24.849Z,35.23
2018-02-10T00:59:52.314Z,37.57
2018-02-10T01:02:19.782Z,34.37
2018-02-10T01:04:47.256Z,41.47
2018-02-10T01:07:14.716Z,44.00
2018-02-10T01:09:42.174Z,38.20
2018-02-10T01:12:09.634Z,26.07
2018-02-10T01:14:37.077Z,37.70
2018-02-10T01:17:04.569Z,33.03
2018-02-10T01:19:32.788Z,32.13
2018-02-10T01:22:00.249Z,33.53
2018-02-10T01:24:27.703Z,40.47
2018-02-10T01:26:55.187Z,33.57
2018-02-10T01:29:22.651Z,38.83
2018-02-10T01:31:50.135Z,38.17
2018-02-10T01:34:17.642Z,33.70
2018-02-10T01:36:45.110Z,37.57
2018-02-10T01:39:12.590Z,34.27
2018-02-10T01:41:40.047Z,34.87
2018-02-10T01:44:09.542Z,36.10
2018-02-10T01:46:36.996Z,39.80
2018-02-10T01:49:04.476Z,34.63
2018-02-10T01:51:32.720Z,39.47
2018-02-10T01:54:00.160Z,41.77
2018-02-10T01:56:27.633Z,36.80
2018-02-10T01:58:55.090Z,39.10
2018-02-10T02:01:22.575Z,35.30
2018-02-10T02:03:50.032Z,36.90
2018-02-10T02:06:17.552Z,35.83
2018-02-10T02:08:45.716Z,41.50
2018-02-10T02:11:13.196Z,36.97
2018-02-10T02:13:40.679Z,33.40
2018-02-10T02:16:08.151Z,34.83
2018-02-10T02:18:36.412Z,35.63
2018-02-10T02:21:03.882Z,32.93
2018-02-10T02:23:31.327Z,36.77
2018-02-10T02:25:58.863Z,33.40
2018-02-10T02:28:26.320Z,33.50
2018-02-10T02:30:53.779Z,40.37
2018-02-10T02:33:21.235Z,34.40
2018-02-10T02:35:48.699Z,38.90
2018-02-10T02:38:16.144Z,38.47
2018-02-10T02:40:43.644Z,40.37
2018-02-10T02:43:11.095Z,36.20
2018-02-10T02:45:38.613Z,37.10
2018-02-10T02:48:06.101Z,37.67
2018-02-10T02:50:33.572Z,37.57
2018-02-10T02:53:01.057Z,40.40
2018-02-10T02:55:29.284Z,35.80
2018-02-10T02:57:56.773Z,35.07
2018-02-10T03:00:24.227Z,34.87
2018-02-10T03:02:51.689Z,35.80
2018-02-10T03:05:19.146Z,37.10
2018-02-10T03:07:46.593Z,37.93
2018-02-10T03:10:14.063Z,44.60
2018-02-10T03:12:41.519Z,39.83
2018-02-10T03:15:08.975Z,36.30
2018-02-10T03:17:36.439Z,46.97
2018-02-10T03:20:03.968Z,38.67
2018-02-10T03:22:31.428Z,39.60
2018-02-10T03:24:58.896Z,40.50
2018-02-10T03:27:26.363Z,45.97
2018-02-10T03:29:53.822Z,46.87
2018-02-10T03:32:21.279Z,46.50
2018-02-10T03:34:48.742Z,42.33
2018-02-10T03:37:16.215Z,43.90
2018-02-10T03:39:44.523Z,44.83
2018-02-10T03:42:11.994Z,47.17
2018-02-10T03:44:39.458Z,42.60
2018-02-10T03:47:06.945Z,46.20
2018-02-10T03:49:34.436Z,41.90
2018-02-10T03:52:02.675Z,59.60
2018-02-10T03:54:30.143Z,54.27
2018-02-10T03:56:57.603Z,48.03
2018-02-10T03:59:25.052Z,52.50
2018-02-10T04:01:52.520Z,53.47
2018-02-10T04:04:19.981Z,49.77
2018-02-10T04:06:47.522Z,51.57
2018-02-10T04:09:15.005Z,55.83
2018-02-10T04:11:43.247Z,51.90
2018-02-10T04:14:10.727Z,58.50
2018-02-10T04:16:38.190Z,48.23
2018-02-10T04:19:05.730Z,46.60
2018-02-10T04:21:33.286Z,59.10
2018-02-10T04:24:00.778Z,48.97
2018-02-10T04:26:28.239Z,53.03
2018-02-10T04:28:56.474Z,50.23
2018-02-10T04:31:23.946Z,53.23
2018-02-10T04:33:51.435Z,50.77
2018-02-10T04:36:19.696Z,46.13
2018-02-10T04:38:47.146Z,44.67
2018-02-10T04:41:14.614Z,52.33
2018-02-10T04:43:42.141Z,49.90
2018-02-10T04:46:09.608Z,48.33
2018-02-10T04:48:37.063Z,45.03
2018-02-10T04:51:04.604Z,55.33
2018-02-10T04:53:32.094Z,56.33
2018-02-10T04:55:59.668Z,55.00
2018-02-10T04:58:27.131Z,55.50
2018-02-10T05:00:54.605Z,52.80
2018-02-10T05:03:22.840Z,51.33
2018-02-10T05:05:51.137Z,55.83
2018-02-10T05:08:18.585Z,57.10
2018-02-10T05:10:46.030Z,54.30
2018-02-10T05:13:13.546Z,54.50
2018-02-10T05:15:40.988Z,55.40
2018-02-10T05:18:09.222Z,59.10
2018-02-10T05:20:36.689Z,59.47
2018-02-10T05:23:04.136Z,57.67
2018-02-10T05:25:31.587Z,60.93
2018-02-10T05:27:59.077Z,57.40
2018-02-10T05:30:26.549Z,59.63
2018-02-10T05:32:54.780Z,60.23
2018-02-10T05:35:22.251Z,55.87
2018-02-10T05:37:49.738Z,58.00
2018-02-10T05:40:17.195Z,61.77
2018-02-10T05:42:44.630Z,59.77
2018-02-10T05:45:12.156Z,63.33
2018-02-10T05:47:39.640Z,73.40
2018-02-10T05:50:07.106Z,67.43
2018-02-10T05:52:34.563Z,62.60
2018-02-10T05:55:02.031Z,69.90
2018-02-10T05:57:29.547Z,62.33
2018-02-10T05:59:57.004Z,66.77
2018-02-10T06:02:24.578Z,62.90
2018-02-10T06:04:52.082Z,69.73
2018-02-10T06:07:19.538Z,70.90
2018-02-10T06:09:47.191Z,73.97
2018-02-10T06:12:14.659Z,64.30
2018-02-10T06:14:42.164Z,69.20
2018-02-10T06:17:09.630Z,61.17
2018-02-10T06:19:37.108Z,59.50
2018-02-10T06:22:04.554Z,61.27
2018-02-10T06:24:32.019Z,70.60
2018-02-10T06:26:59.501Z,59.87
2018-02-10T06:29:26.973Z,55.90
2018-02-10T06:31:55.202Z,60.07
2018-02-10T06:34:22.679Z,63.93
2018-02-10T06:36:50.144Z,67.20
2018-02-10T06:39:17.692Z,67.03
2018-02-10T06:41:45.326Z,61.63
2018-02-10T06:44:12.787Z,58.63
2018-02-10T06:46:41.023Z,63.00
2018-02-10T06:49:09.267Z,65.77
2018-02-10T06:51:36.750Z,58.53
2018-02-10T06:54:04.213Z,61.63
2018-02-10T06:56:31.667Z,56.93
2018-02-10T06:58:59.135Z,56.87
2018-02-10T07:01:27.385Z,52.43
2018-02-10T07:03:54.887Z,51.33
2018-02-10T07:06:23.146Z,56.13
2018-02-10T07:08:51.383Z,68.67
2018-02-10T07:11:18.935Z,64.93
2018-02-10T07:13:46.801Z,56.83
2018-02-10T07:16:14.267Z,55.03
2018-02-10T07:18:41.772Z,54.40
2018-02-10T07:21:09.981Z,58.93
2018-02-10T07:23:37.505Z,51.53
2018-02-10T07:26:05.729Z,48.07
2018-02-10T07:28:33.192Z,45.07
2018-02-10T07:31:00.708Z,43.30
2018-02-10T07:33:28.939Z,55.10
2018-02-10T07:35:56.403Z,53.00
2018-02-10T07:38:24.846Z,48.30
2018-02-10T07:40:52.424Z,48.80
2018-02-10T07:43:19.888Z,42.70
2018-02-10T07:45:47.382Z,43.20
2018-02-10T07:48:14.840Z,45.07
2018-02-10T07:50:42.373Z,52.47
2018-02-10T07:53:09.870Z,53.57
2018-02-10T07:55:38.131Z,49.87
2018-02-10T07:58:05.597Z,49.63
2018-02-10T08:00:33.853Z,48.50
2018-02-10T08:03:01.335Z,50.83
2018-02-10T08:05:29.563Z,51.97
2018-02-10T08:07:57.035Z,45.17
2018-02-10T08:10:24.500Z,49.97
2018-02-10T08:12:51.956Z,49.60
2018-02-10T08:15:19.407Z,44.40
2018-02-10T08:17:46.894Z,47.10
2018-02-10T08:20:14.511Z,43.43
2018-02-10T08:22:42.001Z,46.30
2018-02-10T08:25:09.559Z,43.53
2018-02-10T08:27:37.052Z,39.67
2018-02-10T08:30:05.308Z,41.17
2018-02-10T08:32:32.763Z,53.67
2018-02-10T08:35:00.248Z,48.97
2018-02-10T08:37:28.502Z,43.37
2018-02-10T08:39:55.975Z,43.37
2018-02-10T08:42:24.200Z,43.20
2018-02-10T08:44:51.663Z,50.87
2018-02-10T08:47:19.155Z,45.17
2018-02-10T08:49:46.638Z,57.03
2018-02-10T08:52:14.875Z,49.73
2018-02-10T08:54:42.308Z,48.70
2018-02-10T08:57:09.792Z,44.30
2018-02-10T08:59:37.220Z,43.93
2018-02-10T09:02:04.714Z,49.70
2018-02-10T09:04:32.168Z,47.33
2018-02-10T09:06:59.654Z,44.63
2018-02-10T09:09:27.873Z,49.93
2018-02-10T09:11:55.357Z,52.43
2018-02-10T09:14:22.846Z,46.00
2018-02-10T09:16:51.107Z,48.20
2018-02-10T09:19:18.584Z,51.33
2018-02-10T09:21:46.834Z,46.63
2018-02-10T09:24:14.305Z,51.60
2018-02-10T09:26:41.756Z,42.23
2018-02-10T09:29:09.262Z,41.40
2018-02-10T09:31:36.771Z,41.97
2018-02-10T09:34:04.242Z,44.23
2018-02-10T09:36:31.765Z,42.77
2018-02-10T09:38:59.250Z,42.00
2018-02-10T09:41:26.741Z,42.40
2018-02-10T09:43:54.989Z,36.70
2018-02-10T09:46:22.473Z,39.83
2018-02-10T09:48:50.714Z,37.27
2018-02-10T09:51:18.189Z,38.13
2018-02-10T09:53:45.655Z,40.03
2018-02-10T09:56:13.904Z,39.17
2018-02-10T09:58:41.359Z,35.17
2018-02-10T10:01:08.845Z,36.40
2018-02-10T10:03:37.101Z,34.77
2018-02-10T10:06:04.574Z,34.57
2018-02-10T10:08:32.020Z,33.40
2018-02-10T10:10:59.495Z,34.90
2018-02-10T10:13:27.739Z,30.80
2018-02-10T10:15:55.222Z,40.00
2018-02-10T10:18:22.695Z,34.20
2018-02-10T10:20:50.927Z,33.23
2018-02-10T10:23:18.507Z,36.33
2018-02-10T10:25:46.024Z,28.87
2018-02-10T10:28:13.531Z,39.23
2018-02-10T10:30:41.301Z,36.27
2018-02-10T10:33:08.779Z,35.17
2018-02-10T10:35:37.011Z,32.93
2018-02-10T10:38:04.490Z,26.40
2018-02-10T10:40:32.155Z,31.47
2018-02-10T10:42:59.568Z,32.57
2018-02-10T10:45:27.094Z,34.80
2018-02-10T10:47:55.319Z,40.60
2018-02-10T10:50:22.801Z,34.20
2018-02-10T10:52:50.247Z,32.97
2018-02-10T10:55:17.716Z,34.23
2018-02-10T10:57:45.175Z,37.07
2018-02-10T11:00:12.866Z,30.90
2018-02-10T11:02:41.103Z,32.57
2018-02-10T11:05:08.572Z,35.63
2018-02-10T11:07:36.028Z,31.70
2018-02-10T11:10:04.328Z,33.43
2018-02-10T11:12:32.602Z,34.03
2018-02-10T11:15:00.815Z,35.83
2018-02-10T11:17:28.378Z,35.37
2018-02-10T11:19:55.862Z,31.50
2018-02-10T11:22:23.336Z,33.67
2018-02-10T11:24:51.013Z,31.70
2018-02-10T11:27:18.539Z,35.10
2018-02-10T11:29:46.007Z,33.37
2018-02-10T11:32:13.525Z,34.90
2018-02-10T11:34:40.999Z,36.03
2018-02-10T11:37:08.462Z,36.87
2018-02-10T11:39:35.990Z,36.20
2018-02-10T11:42:03.472Z,33.30
2018-02-10T11:44:31.078Z,34.30
2018-02-10T11:46:59.454Z,36.93
2018-02-10T11:49:26.911Z,38.60
2018-02-10T11:51:54.371Z,40.37
2018-02-10T11:54:21.841Z,39.23
2018-02-10T11:56:49.289Z,41.67
2018-02-10T11:59:17.535Z,38.10
2018-02-10T12:01:45.003Z,42.23
2018-02-10T12:04:12.448Z,40.57
2018-02-10T12:06:39.907Z,43.67
2018-02-10T12:09:07.387Z,41.50
2018-02-10T12:11:34.967Z,37.83
2018-02-10T12:14:03.224Z,42.67
2018-02-10T12:16:30.703Z,40.27
2018-02-10T12:18:58.982Z,45.73
2018-02-10T12:21:27.201Z,40.60
2018-02-10T12:23:54.686Z,43.13
2018-02-10T12:26:22.196Z,44.57
2018-02-10T12:28:49.695Z,44.50
2018-02-10T12:31:17.210Z,49.47
2018-02-10T12:33:46.863Z,54.47
2018-02-10T12:36:14.417Z,52.97
2018-02-10T12:38:41.861Z,48.97
2018-02-10T12:41:09.339Z,49.30
2018-02-10T12:43:36.826Z,51.97
2018-02-10T12:46:04.271Z,51.67
2018-02-10T12:48:37.379Z,49.90
2018-02-10T12:51:04.917Z,47.63
2018-02-10T12:53:32.337Z,51.20
2018-02-10T12:55:59.771Z,48.07
2018-02-10T12:58:28.105Z,49.27
2018-02-10T13:00:55.590Z,52.97
2018-02-10T13:03:23.148Z,47.20
2018-02-10T13:05:51.410Z,40.63
2018-02-10T13:08:18.928Z,44.10
2018-02-10T13:10:46.375Z,39.53
2018-02-10T13:13:14.594Z,44.80
2018-02-10T13:15:42.052Z,42.07
2018-02-10T13:18:09.550Z,39.77
2018-02-10T13:20:37.829Z,36.43
2018-02-10T13:23:06.084Z,41.30
2018-02-10T13:25:33.551Z,37.17
2018-02-10T13:28:01.031Z,30.13
2018-02-10T13:30:29.286Z,35.50
2018-02-10T13:32:56.764Z,31.40
2018-02-10T13:35:25.021Z,28.20
2018-02-10T13:37:52.540Z,29.17
2018-02-10T13:40:20.047Z,31.70
2018-02-10T13:42:48.327Z,28.87
2018-02-10T13:45:16.575Z,30.60
2018-02-10T13:47:44.124Z,28.80
2018-02-10T13:50:11.638Z,27.90
2018-02-10T13:52:39.091Z,30.60
2018-02-10T13:55:07.446Z,30.50
2018-02-10T13:57:34.912Z,29.93
2018-02-10T14:00:02.377Z,28.93
2018-02-10T14:02:30.663Z,27.37
2018-02-10T14:04:58.923Z,26.53
2018-02-10T14:07:26.555Z,29.67
2018-02-10T14:09:54.043Z,27.00
2018-02-10T14:12:21.500Z,25.27
2018-02-10T14:14:48.971Z,24.67
2018-02-10T14:17:17.294Z,28.13
2018-02-10T14:19:44.780Z,28.50
2018-02-10T14:22:12.255Z,27.37
2018-02-10T14:24:39.796Z,29.30
2018-02-10T14:27:07.272Z,35.50
2018-02-10T14:29:34.743Z,32.33
2018-02-10T14:32:02.991Z,34.60
2018-02-10T14:34:30.529Z,33.27
2018-02-10T14:36:57.985Z,35.23
2018-02-10T14:39:25.478Z,32.17
2018-02-10T14:41:52.943Z,40.13
2018-02-10T14:44:20.418Z,40.73
2018-02-10T14:46:48.828Z,35.27
2018-02-10T14:49:16.296Z,40.87
2018-02-10T14:51:43.771Z,36.23
2018-02-10T14:54:11.235Z,44.40
2018-02-10T14:56:38.730Z,43.10
2018-02-10T14:59:06.997Z,39.13
2018-02-10T15:01:34.554Z,38.60
2018-02-10T15:04:02.000Z,36.90
2018-02-10T15:06:30.187Z,30.40
2018-02-10T15:08:58.559Z,34.27
2018-02-10T15:11:26.418Z,34.30
2018-02-10T15:13:53.883Z,36.67
2018-02-10T15:16:21.648Z,36.77
2018-02-10T15:18:49.086Z,35.40
2018-02-10T15:21:16.596Z,31.97
2018-02-10T15:23:45.078Z,33.73
2018-02-10T15:26:14.387Z,36.40
2018-02-10T15:28:42.577Z,37.27
2018-02-10T15:31:21.991Z,36.43
2018-02-10T15:34:02.247Z,43.30
2018-02-10T15:36:30.048Z,34.57
2018-02-10T15:38:57.513Z,40.17
2018-02-10T15:41:24.979Z,42.40
2018-02-10T15:43:52.687Z,43.43
2018-02-10T15:46:21.218Z,45.77
2018-02-10T15:48:48.670Z,41.20
2018-02-10T15:51:16.155Z,38.50
2018-02-10T15:53:43.781Z,39.27
2018-02-10T15:56:11.257Z,46.50
2018-02-10T15:58:38.750Z,44.53
2018-02-10T16:01:06.228Z,42.80
2018-02-10T16:03:34.480Z,50.53
2018-02-10T16:06:01.991Z,44.63
2018-02-10T16:08:29.447Z,48.90
2018-02-10T16:10:57.020Z,45.63
2018-02-10T16:13:24.669Z,49.10
2018-02-10T16:15:52.110Z,47.53
2018-02-10T16:18:19.579Z,49.33
2018-02-10T16:20:47.044Z,51.40
2018-02-10T16:23:14.504Z,51.17
2018-02-10T16:25:41.971Z,59.40
2018-02-10T16:28:09.944Z,54.13
2018-02-10T16:30:37.540Z,50.50
2018-02-10T16:33:04.997Z,59.43
2018-02-10T16:35:32.511Z,53.53
2018-02-10T16:37:59.978Z,47.57
2018-02-10T16:40:27.468Z,51.90
2018-02-10T16:42:55.071Z,54.80
2018-02-10T16:45:22.573Z,53.57
2018-02-10T16:47:50.059Z,44.03
2018-02-10T16:50:17.532Z,45.30
2018-02-10T16:52:45.771Z,44.97
2018-02-10T16:55:13.466Z,42.67
2018-02-10T16:57:40.939Z,44.23
2018-02-10T17:00:09.184Z,46.90
2018-02-10T17:02:36.675Z,43.03
2018-02-10T17:05:04.671Z,44.67
2018-02-10T17:07:32.125Z,41.53
2018-02-10T17:09:59.631Z,40.27
2018-02-10T17:12:27.091Z,39.23
2018-02-10T17:14:54.652Z,37.30
2018-02-10T17:17:22.152Z,36.93
2018-02-10T17:19:49.729Z,36.73
2018-02-10T17:22:17.244Z,40.67
2018-02-10T17:24:45.479Z,39.30
2018-02-10T17:27:12.969Z,40.83
2018-02-10T17:29:41.959Z,35.47
2018-02-10T17:32:09.427Z,41.03
2018-02-10T17:34:37.024Z,39.57
2018-02-10T17:37:04.649Z,39.10
2018-02-10T17:39:32.112Z,42.40
2018-02-10T17:42:00.566Z,43.50
2018-02-10T17:44:28.019Z,45.87
2018-02-10T17:46:55.549Z,43.60
2018-02-10T17:49:23.216Z,42.03
2018-02-10T17:51:51.550Z,44.03
2018-02-10T17:54:19.800Z,48.73
2018-02-10T17:56:47.251Z,44.37
2018-02-10T17:59:14.889Z,50.93
2018-02-10T18:01:42.322Z,51.80
2018-02-10T18:04:10.545Z,54.83
2018-02-10T18:06:38.110Z,50.27
2018-02-10T18:09:05.593Z,46.47
2018-02-10T18:11:33.063Z,53.20
2018-02-10T18:14:01.303Z,51.70
2018-02-10T18:16:28.786Z,58.43
2018-02-10T18:18:56.297Z,49.00
2018-02-10T18:21:23.896Z,55.43
2018-02-10T18:23:51.375Z,47.20
2018-02-10T18:26:19.627Z,66.27
2018-02-10T18:28:47.862Z,54.50
2018-02-10T18:31:15.394Z,52.00
2018-02-10T18:33:43.774Z,42.30
2018-02-10T18:36:12.037Z,48.37
2018-02-10T18:38:39.699Z,42.90
2018-02-10T18:41:07.172Z,51.47
2018-02-10T18:43:35.415Z,44.13
2018-02-10T18:46:02.968Z,43.30
2018-02-10T18:48:30.907Z,43.13
2018-02-10T18:50:58.420Z,52.20
2018-02-10T18:53:26.671Z,49.30
2018-02-10T18:55:54.156Z,46.10
2018-02-10T18:58:21.612Z,49.17
2018-02-10T19:00:49.877Z,44.13
2018-02-10T19:03:17.580Z,37.73
2018-02-10T19:05:46.029Z,42.80
2018-02-10T19:08:13.572Z,41.80
2018-02-10T19:10:41.098Z,40.73
2018-02-10T19:13:08.782Z,39.67
2018-02-10T19:15:36.271Z,36.43
2018-02-10T19:18:03.786Z,41.63
2018-02-10T19:20:31.371Z,42.50
2018-02-10T19:22:58.889Z,38.50
2018-02-10T19:25:26.373Z,34.83
2018-02-10T19:27:53.875Z,36.07
2018-02-10T19:30:21.324Z,38.17
2018-02-10T19:32:48.819Z,33.73
2018-02-10T19:35:17.046Z,32.67
2018-02-10T19:37:44.685Z,35.30
2018-02-10T19:40:12.173Z,34.03
2018-02-10T19:42:39.645Z,35.73
2018-02-10T19:45:07.133Z,36.37
2018-02-10T19:47:35.392Z,38.93
2018-02-10T19:50:04.279Z,31.50
2018-02-10T19:52:32.870Z,28.70
2018-02-10T19:55:01.316Z,29.80
2018-02-10T19:57:29.083Z,31.97
2018-02-10T19:59:56.555Z,32.53
2018-02-10T20:02:24.070Z,23.17
2018-02-10T20:04:51.597Z,28.77
2018-02-10T20:07:19.817Z,25.87
2018-02-10T20:09:47.307Z,29.70
2018-02-10T20:12:14.766Z,31.53
2018-02-10T20:14:42.596Z,24.60
2018-02-10T20:17:10.186Z,25.40
2018-02-10T20:19:37.641Z,25.80
2018-02-10T20:22:05.116Z,54.90
2018-02-10T20:24:32.670Z,31.57
2018-02-10T20:27:00.600Z,26.83
2018-02-10T20:29:28.131Z,23.37
2018-02-10T20:31:56.385Z,25.80
2018-02-10T20:34:23.987Z,21.33
2018-02-10T20:36:51.458Z,19.47
2018-02-10T20:39:19.072Z,22.07
2018-02-10T20:41:47.314Z,20.33
2018-02-10T20:44:14.782Z,20.30
2018-02-10T20:46:42.281Z,21.30
2018-02-10T20:49:10.517Z,20.33
2018-02-10T20:51:38.040Z,20.67
2018-02-10T20:54:05.505Z,20.03
2018-02-10T20:56:32.994Z,19.03
2018-02-10T20:59:00.888Z,15.83
2018-02-10T21:01:28.503Z,20.37
2018-02-10T21:03:56.484Z,19.10
2018-02-10T21:06:24.149Z,18.30
2018-02-10T21:08:51.676Z,22.97
2018-02-10T21:11:19.287Z,19.03
2018-02-10T21:13:47.120Z,19.40
2018-02-10T21:16:14.619Z,17.33
2018-02-10T21:18:42.407Z,15.80
2018-02-10T21:21:10.702Z,16.60
2018-02-10T21:23:38.245Z,14.23
2018-02-10T21:26:05.832Z,15.93
2018-02-10T21:28:33.494Z,14.27
2018-02-10T21:31:01.090Z,19.83
2018-02-10T21:33:28.573Z,17.33
2018-02-10T21:35:56.827Z,14.70
2018-02-10T21:38:24.407Z,14.33
2018-02-10T21:40:51.888Z,23.90
2018-02-10T21:43:20.191Z,14.37
2018-02-10T21:45:47.752Z,13.80
2018-02-10T21:48:15.324Z,15.60
2018-02-10T21:50:42.869Z,13.40
2018-02-10T21:53:11.091Z,56.33
2018-02-10T21:55:38.547Z,11.67
2018-02-10T21:58:06.124Z,9.80
2018-02-10T22:00:34.411Z,11.30
2018-02-10T22:03:02.780Z,13.70
2018-02-10T22:05:30.342Z,13.20
2018-02-10T22:07:58.621Z,15.90
2018-02-10T22:10:26.990Z,11.03
2018-02-10T22:12:54.493Z,17.83
2018-02-10T22:15:21.988Z,9.00
2018-02-10T22:17:49.479Z,10.00
2018-02-10T22:20:17.890Z,10.37
2018-02-10T22:22:45.390Z,12.67
2018-02-10T22:25:12.959Z,11.40
2018-02-10T22:27:40.452Z,11.17
2018-02-10T22:30:07.960Z,10.17
2018-02-10T22:32:35.436Z,10.60
2018-02-10T22:35:03.274Z,9.10
2018-02-10T22:37:30.791Z,11.23
2018-02-10T22:39:59.289Z,8.53
2018-02-10T22:42:26.757Z,6.73
2018-02-10T22:44:54.392Z,9.30
2018-02-10T22:47:22.040Z,8.50
2018-02-10T22:49:49.741Z,10.57
2018-02-10T22:52:17.225Z,8.40
2018-02-10T22:54:44.925Z,9.23
2018-02-10T22:57:13.178Z,9.83
2018-02-10T22:59:40.643Z,9.27
2018-02-10T23:02:08.121Z,12.43
2018-02-10T23:04:36.381Z,8.17
2018-02-10T23:07:03.827Z,15.53
2018-02-10T23:09:31.660Z,12.17
2018-02-10T23:11:59.086Z,11.83
2018-02-10T23:14:27.323Z,11.90
2018-02-10T23:16:54.849Z,10.57
2018-02-10T23:19:22.359Z,14.10
2018-02-10T23:21:49.835Z,10.00
2018-02-10T23:24:18.078Z,7.30
2018-02-10T23:26:45.602Z,11.23
2018-02-10T23:29:13.091Z,12.23
2018-02-10T23:31:40.618Z,9.37
2018-02-10T23:34:08.090Z,8.30
2018-02-10T23:36:35.603Z,8.80
2018-02-10T23:39:03.983Z,11.10
2018-02-10T23:41:32.209Z,8.60
2018-02-10T23:43:59.689Z,11.23
2018-02-10T23:46:27.226Z,10.20
2018-02-10T23:48:54.732Z,8.17
2018-02-10T23:51:23.254Z,12.37
2018-02-10T23:53:51.734Z,10.60
2018-02-10T23:56:20.163Z,7.90
2018-02-10T23:58:49.357Z,7.23
